Time;durP1;ratioP1;P1;durP2;ratioP2;P2;SDS_P1;SDS_P2;PMS_P1;PMS_P2;Temp;Humidity;BMP_temperature;BMP_pressure;BME280_temperature;BME280_humidity;BME280_pressure;Samples;Min_cycle;Max_cycle;Signal;HPM_P1;HPM_P2
2024/03/21 00:01:30;;;;;;;43.83;28.23;;;;;;;;;;5053502;28;20042;-64
2024/03/21 00:03:56;;;;;;;48.60;29.95;;;;;;;;;;5053825;28;20518;-63
2024/03/21 00:06:22;;;;;;;51.40;30.10;;;;;;;;;;5054555;28;20112;-64
2024/03/21 00:08:48;;;;;;;51.05;28.90;;;;;;;;;;5054530;28;20063;-64
2024/03/21 00:11:13;;;;;;;44.45;28.27;;;;;;;;;;5053784;28;20071;-64
2024/03/21 00:13:38;;;;;;;44.85;28.83;;;;;;;;;;5052891;28;20052;-64
2024/03/21 00:16:05;;;;;;;49.00;28.48;;;;;;;;;;5052505;28;20025;-64
2024/03/21 00:18:31;;;;;;;47.42;28.05;;;;;;;;;;5052034;28;20017;-64
2024/03/21 00:20:56;;;;;;;42.83;27.20;;;;;;;;;;5052351;28;20128;-64
2024/03/21 00:23:22;;;;;;;44.28;27.73;;;;;;;;;;5051336;28;20027;-63
2024/03/21 00:25:47;;;;;;;47.20;28.23;;;;;;;;;;5052328;28;20446;-63
2024/03/21 00:28:15;;;;;;;45.83;27.05;;;;;;;;;;5052348;28;20029;-63
2024/03/21 00:30:43;;;;;;;46.28;27.25;;;;;;;;;;5052490;28;20056;-63
2024/03/21 00:33:10;;;;;;;42.03;25.85;;;;;;;;;;5052581;28;20167;-63
2024/03/21 00:35:36;;;;;;;45.03;28.38;;;;;;;;;;5052707;28;20032;-63
2024/03/21 00:38:01;;;;;;;44.58;27.67;;;;;;;;;;5052847;28;20021;-63
2024/03/21 00:40:29;;;;;;;44.42;27.58;;;;;;;;;;5052796;28;20033;-63
2024/03/21 00:42:54;;;;;;;44.67;26.73;;;;;;;;;;5052428;28;20036;-64
2024/03/21 00:45:20;;;;;;;49.00;27.55;;;;;;;;;;5053847;28;20033;-64
2024/03/21 00:47:46;;;;;;;41.80;26.20;;;;;;;;;;5052081;28;20027;-64
2024/03/21 00:50:11;;;;;;;44.17;27.02;;;;;;;;;;5052227;28;20479;-64
2024/03/21 00:52:36;;;;;;;42.17;26.17;;;;;;;;;;5053461;28;20079;-64
2024/03/21 00:55:02;;;;;;;45.08;27.35;;;;;;;;;;5053412;28;20482;-64
2024/03/21 00:57:27;;;;;;;42.63;26.52;;;;;;;;;;5053920;28;20033;-64
2024/03/21 00:59:53;;;;;;;44.78;27.85;;;;;;;;;;5053637;28;20037;-64
2024/03/21 01:02:19;;;;;;;43.95;27.23;;;;;;;;;;5053301;28;20037;-64
2024/03/21 01:04:50;;;;;;;44.42;27.92;;;;;;;;;;5053649;28;20079;-64
2024/03/21 01:07:16;;;;;;;45.78;29.48;;;;;;;;;;5053270;28;20108;-64
2024/03/21 01:09:41;;;;;;;50.53;30.90;;;;;;;;;;5053315;28;20028;-64
2024/03/21 01:12:07;;;;;;;46.95;29.23;;;;;;;;;;5051968;28;20475;-64
2024/03/21 01:14:32;;;;;;;46.28;28.45;;;;;;;;;;5052618;28;20037;-64
2024/03/21 01:16:57;;;;;;;46.22;28.73;;;;;;;;;;5051980;28;20029;-64
2024/03/21 01:19:23;;;;;;;49.63;28.05;;;;;;;;;;5051898;28;20033;-64
2024/03/21 01:21:48;;;;;;;49.42;29.23;;;;;;;;;;5051938;28;20029;-64
2024/03/21 01:24:13;;;;;;;50.97;29.40;;;;;;;;;;5053684;28;20025;-64
2024/03/21 01:26:39;;;;;;;58.10;31.00;;;;;;;;;;5053391;28;20061;-64
2024/03/21 01:29:05;;;;;;;55.25;30.70;;;;;;;;;;5053108;28;20060;-64
2024/03/21 01:31:30;;;;;;;53.15;30.55;;;;;;;;;;5054644;28;20029;-64
2024/03/21 01:33:55;;;;;;;50.08;29.90;;;;;;;;;;5056853;28;20529;-64
2024/03/21 01:36:21;;;;;;;57.22;31.85;;;;;;;;;;5056897;28;20155;-64
2024/03/21 01:38:46;;;;;;;55.30;31.00;;;;;;;;;;5056720;28;20113;-64
2024/03/21 01:41:12;;;;;;;53.65;31.42;;;;;;;;;;5056703;28;20013;-63
2024/03/21 01:43:38;;;;;;;49.25;30.38;;;;;;;;;;5056604;28;20123;-64
2024/03/21 01:46:03;;;;;;;50.75;31.08;;;;;;;;;;5056583;28;20025;-63
2024/03/21 01:48:29;;;;;;;51.28;31.55;;;;;;;;;;5056329;28;20044;-64
2024/03/21 01:50:54;;;;;;;50.33;30.27;;;;;;;;;;5055205;28;20040;-63
2024/03/21 01:53:20;;;;;;;49.15;30.05;;;;;;;;;;5056468;28;20082;-64
2024/03/21 01:55:45;;;;;;;53.50;30.52;;;;;;;;;;5055274;28;20051;-64
2024/03/21 01:58:11;;;;;;;51.90;31.67;;;;;;;;;;5056339;28;20025;-63
2024/03/21 02:00:37;;;;;;;49.15;30.15;;;;;;;;;;5056613;28;20058;-63
2024/03/21 02:03:02;;;;;;;52.40;31.60;;;;;;;;;;5056855;28;20055;-64
2024/03/21 02:05:28;;;;;;;52.50;32.10;;;;;;;;;;5056799;28;20024;-64
2024/03/21 02:07:53;;;;;;;51.70;30.35;;;;;;;;;;5056246;28;20520;-64
2024/03/21 02:10:19;;;;;;;57.22;33.05;;;;;;;;;;5056541;28;20036;-64
2024/03/21 02:12:48;;;;;;;56.22;32.70;;;;;;;;;;5054655;28;20059;-64
2024/03/21 02:15:13;;;;;;;58.72;33.28;;;;;;;;;;5055120;28;20082;-64
2024/03/21 02:17:39;;;;;;;60.13;35.90;;;;;;;;;;5054551;28;20033;-64
2024/03/21 02:20:05;;;;;;;59.63;34.15;;;;;;;;;;5055240;28;20126;-64
2024/03/21 02:22:37;;;;;;;56.78;34.58;;;;;;;;;;5053623;28;20037;-64
2024/03/21 02:25:04;;;;;;;53.25;32.83;;;;;;;;;;5054969;28;20032;-59
2024/03/21 02:27:30;;;;;;;53.55;32.28;;;;;;;;;;5055178;28;20447;-60
2024/03/21 02:29:56;;;;;;;52.42;31.55;;;;;;;;;;5053735;28;20036;-58
2024/03/21 02:32:21;;;;;;;53.25;31.83;;;;;;;;;;5054390;28;20075;-63
2024/03/21 02:34:47;;;;;;;54.50;33.10;;;;;;;;;;5055748;28;20048;-63
2024/03/21 02:37:13;;;;;;;48.28;31.20;;;;;;;;;;5055335;28;20071;-63
2024/03/21 02:39:39;;;;;;;53.78;32.97;;;;;;;;;;5055610;28;20487;-63
2024/03/21 02:42:04;;;;;;;50.83;32.30;;;;;;;;;;5054554;28;20051;-63
2024/03/21 02:44:29;;;;;;;51.33;32.47;;;;;;;;;;5054728;28;20017;-63
2024/03/21 02:46:55;;;;;;;49.55;31.70;;;;;;;;;;5054024;28;20037;-63
2024/03/21 02:49:20;;;;;;;50.95;31.40;;;;;;;;;;5054646;28;20037;-63
2024/03/21 02:51:46;;;;;;;53.33;32.30;;;;;;;;;;5055667;28;20379;-63
2024/03/21 02:54:11;;;;;;;55.22;32.47;;;;;;;;;;5055777;28;20067;-63
2024/03/21 02:56:36;;;;;;;51.10;32.10;;;;;;;;;;5055630;28;20028;-64
2024/03/21 02:59:02;;;;;;;48.97;31.85;;;;;;;;;;5054259;28;20428;-64
2024/03/21 03:01:28;;;;;;;47.83;30.83;;;;;;;;;;5055253;28;20098;-64
2024/03/21 03:03:53;;;;;;;49.03;30.88;;;;;;;;;;5055163;28;20041;-64
2024/03/21 03:06:22;;;;;;;54.80;32.35;;;;;;;;;;5055388;28;20029;-64
2024/03/21 03:09:04;;;;;;;49.90;31.45;;;;;;;;;;5060225;23;20463;-59
2024/03/21 03:11:30;;;;;;;47.85;32.00;;;;;;;;;;5079247;22;20139;-59
2024/03/21 03:13:57;;;;;;;48.42;30.20;;;;;;;;;;5094513;22;20451;-63
2024/03/21 03:16:23;;;;;;;50.17;30.90;;;;;;;;;;5080064;22;20075;-59
2024/03/21 03:18:48;;;;;;;49.97;30.73;;;;;;;;;;5075275;28;20466;-63
2024/03/21 03:21:14;;;;;;;51.10;32.40;;;;;;;;;;5074842;28;20340;-63
2024/03/21 03:23:49;;;;;;;51.50;31.90;;;;;;;;;;5074733;28;20128;-63
2024/03/21 03:26:14;;;;;;;50.50;31.92;;;;;;;;;;5074465;28;20115;-63
2024/03/21 03:28:40;;;;;;;50.38;31.55;;;;;;;;;;5074707;28;20071;-63
2024/03/21 03:31:05;;;;;;;50.83;30.77;;;;;;;;;;5075211;28;20028;-63
2024/03/21 03:36:14;;;;;;;47.22;30.90;;;;;;;;;;5074780;28;20063;-63
2024/03/21 03:38:40;;;;;;;50.33;30.40;;;;;;;;;;5074500;28;20056;-63
2024/03/21 03:41:05;;;;;;;49.75;30.35;;;;;;;;;;5074414;28;20498;-63
2024/03/21 03:43:30;;;;;;;45.85;29.63;;;;;;;;;;5074336;28;20058;-63
2024/03/21 03:45:56;;;;;;;47.95;29.25;;;;;;;;;;5074642;28;20067;-63
2024/03/21 03:48:21;;;;;;;67.55;29.63;;;;;;;;;;5073763;28;20021;-63
2024/03/21 03:50:47;;;;;;;47.20;29.23;;;;;;;;;;5074098;28;20023;-64
2024/03/21 03:53:12;;;;;;;45.55;28.55;;;;;;;;;;5073308;28;20047;-64
2024/03/21 03:55:37;;;;;;;42.38;27.10;;;;;;;;;;5074343;28;20119;-64
2024/03/21 03:58:03;;;;;;;48.15;29.88;;;;;;;;;;5074741;28;20064;-64
2024/03/21 04:00:28;;;;;;;46.92;29.38;;;;;;;;;;5074079;28;20025;-64
2024/03/21 04:02:54;;;;;;;46.13;30.02;;;;;;;;;;5073701;28;20036;-64
2024/03/21 04:05:19;;;;;;;50.45;30.08;;;;;;;;;;5074023;28;20032;-64
2024/03/21 04:07:45;;;;;;;46.85;29.48;;;;;;;;;;5074528;28;20024;-64
2024/03/21 04:10:10;;;;;;;50.42;28.88;;;;;;;;;;5074223;28;20020;-64
2024/03/21 04:12:36;;;;;;;44.90;28.70;;;;;;;;;;5074092;28;20037;-65
2024/03/21 04:15:01;;;;;;;47.90;30.08;;;;;;;;;;5072631;28;20040;-65
2024/03/21 04:17:26;;;;;;;48.22;29.15;;;;;;;;;;5090084;28;20043;-64
2024/03/21 04:19:52;;;;;;;48.13;29.67;;;;;;;;;;5094016;28;20036;-64
2024/03/21 04:22:17;;;;;;;50.72;31.73;;;;;;;;;;5094496;28;20431;-63
2024/03/21 04:24:43;;;;;;;53.28;34.05;;;;;;;;;;5093967;28;20490;-64
2024/03/21 04:27:09;;;;;;;54.83;35.30;;;;;;;;;;5075824;28;20024;-64
2024/03/21 04:29:34;;;;;;;63.40;38.72;;;;;;;;;;5094200;28;20046;-63
2024/03/21 04:31:59;;;;;;;63.58;39.00;;;;;;;;;;5093589;28;20024;-64
2024/03/21 04:34:25;;;;;;;63.08;38.58;;;;;;;;;;5094675;28;20028;-64
2024/03/21 04:36:51;;;;;;;62.20;37.70;;;;;;;;;;5076004;28;20020;-63
2024/03/21 04:39:16;;;;;;;62.13;36.97;;;;;;;;;;5075917;28;20378;-64
2024/03/21 04:41:42;;;;;;;61.72;35.13;;;;;;;;;;5093901;28;20055;-64
2024/03/21 04:44:08;;;;;;;55.70;34.72;;;;;;;;;;5094209;28;20027;-64
2024/03/21 04:46:33;;;;;;;57.08;32.90;;;;;;;;;;5093532;28;20025;-63
2024/03/21 04:48:58;;;;;;;51.88;32.47;;;;;;;;;;5093764;28;20091;-63
2024/03/21 04:51:24;;;;;;;56.55;33.28;;;;;;;;;;5092765;28;20031;-63
2024/03/21 04:53:49;;;;;;;53.85;32.28;;;;;;;;;;5092138;28;20543;-63
2024/03/21 04:56:14;;;;;;;56.78;31.58;;;;;;;;;;5093122;28;20043;-63
2024/03/21 04:58:40;;;;;;;56.08;32.08;;;;;;;;;;5074841;28;20016;-63
2024/03/21 05:01:06;;;;;;;55.28;31.70;;;;;;;;;;5093313;28;20032;-64
2024/03/21 05:03:32;;;;;;;53.80;31.58;;;;;;;;;;5093414;28;20032;-63
2024/03/21 05:05:57;;;;;;;52.10;31.85;;;;;;;;;;5077564;28;20035;-63
2024/03/21 05:08:23;;;;;;;53.20;32.88;;;;;;;;;;5096632;28;20028;-64
2024/03/21 05:10:49;;;;;;;57.13;36.60;;;;;;;;;;5078312;28;20024;-64
2024/03/21 05:13:14;;;;;;;59.15;38.70;;;;;;;;;;5096638;28;20035;-63
2024/03/21 05:15:49;;;;;;;62.17;40.08;;;;;;;;;;5096329;28;20056;-63
2024/03/21 05:18:14;;;;;;;71.53;44.03;;;;;;;;;;5096245;28;20035;-63
2024/03/21 05:20:40;;;;;;;67.85;43.97;;;;;;;;;;5078302;28;20028;-62
2024/03/21 05:23:05;;;;;;;65.40;43.95;;;;;;;;;;5078334;28;20770;-59
2024/03/21 05:25:31;;;;;;;65.60;43.58;;;;;;;;;;5096813;28;20024;-63
2024/03/21 05:27:56;;;;;;;65.40;42.03;;;;;;;;;;5096914;28;20141;-60
2024/03/21 05:30:30;;;;;;;57.45;39.90;;;;;;;;;;5097427;22;20130;-62
2024/03/21 05:32:56;;;;;;;59.22;38.75;;;;;;;;;;4996309;28;20521;-63
2024/03/21 05:35:21;;;;;;;57.85;39.03;;;;;;;;;;4997523;28;20035;-58
2024/03/21 05:37:47;;;;;;;54.40;36.60;;;;;;;;;;5012588;28;20374;-59
2024/03/21 05:42:54;;;;;;;52.30;34.40;;;;;;;;;;5110005;22;21076;-58
2024/03/21 05:45:20;;;;;;;52.88;32.55;;;;;;;;;;5093962;22;20044;-63
2024/03/21 05:47:45;;;;;;;51.38;33.72;;;;;;;;;;5087676;22;20388;-63
2024/03/21 05:50:11;;;;;;;55.05;36.22;;;;;;;;;;5076579;28;20072;-63
2024/03/21 05:52:36;;;;;;;56.28;36.10;;;;;;;;;;5077083;28;20032;-63
2024/03/21 05:55:02;;;;;;;58.58;36.53;;;;;;;;;;5075277;28;20108;-63
2024/03/21 05:57:28;;;;;;;57.85;35.95;;;;;;;;;;5076454;28;20040;-63
2024/03/21 05:59:54;;;;;;;55.40;36.58;;;;;;;;;;5076951;28;20112;-63
2024/03/21 06:02:19;;;;;;;53.70;35.10;;;;;;;;;;5076580;28;20031;-63
2024/03/21 06:04:45;;;;;;;58.50;35.65;;;;;;;;;;5076861;28;20017;-63
2024/03/21 06:07:10;;;;;;;57.17;35.88;;;;;;;;;;5058425;28;20386;-63
2024/03/21 06:09:36;;;;;;;69.75;39.75;;;;;;;;;;5076264;28;20067;-63
2024/03/21 06:12:02;;;;;;;72.30;43.13;;;;;;;;;;5074955;28;20056;-63
2024/03/21 06:14:28;;;;;;;78.60;44.95;;;;;;;;;;5075542;28;20035;-64
2024/03/21 06:16:53;;;;;;;70.15;39.60;;;;;;;;;;5075692;28;20028;-64
2024/03/21 06:19:19;;;;;;;59.70;35.70;;;;;;;;;;5076066;28;20032;-63
2024/03/21 06:21:44;;;;;;;55.30;33.58;;;;;;;;;;5076519;28;20107;-63
2024/03/21 06:24:09;;;;;;;50.08;32.38;;;;;;;;;;5075110;28;20032;-63
2024/03/21 06:26:36;;;;;;;48.63;30.65;;;;;;;;;;5076066;28;20103;-63
2024/03/21 06:29:02;;;;;;;50.45;32.83;;;;;;;;;;5075946;28;20035;-63
2024/03/21 06:31:27;;;;;;;48.17;31.10;;;;;;;;;;5076426;28;20107;-63
2024/03/21 06:33:53;;;;;;;49.72;31.40;;;;;;;;;;5076081;28;20115;-63
2024/03/21 06:36:18;;;;;;;51.22;33.38;;;;;;;;;;5073993;28;20028;-63
2024/03/21 06:38:44;;;;;;;49.58;33.20;;;;;;;;;;5074469;28;20048;-63
2024/03/21 06:41:09;;;;;;;49.15;30.52;;;;;;;;;;5074431;28;20034;-63
2024/03/21 06:43:34;;;;;;;49.85;29.55;;;;;;;;;;5073012;28;20074;-63
2024/03/21 06:46:00;;;;;;;46.83;30.05;;;;;;;;;;5074081;28;20044;-63
2024/03/21 06:48:25;;;;;;;48.35;30.15;;;;;;;;;;5074051;28;20047;-63
2024/03/21 06:50:51;;;;;;;49.55;30.92;;;;;;;;;;5074256;28;20037;-63
2024/03/21 06:53:16;;;;;;;53.53;33.05;;;;;;;;;;5074151;28;20066;-63
2024/03/21 06:55:41;;;;;;;55.72;32.42;;;;;;;;;;5075396;28;20031;-63
2024/03/21 06:58:07;;;;;;;54.45;32.05;;;;;;;;;;5074047;28;20032;-63
2024/03/21 07:00:32;;;;;;;52.20;31.63;;;;;;;;;;5075843;28;20040;-63
2024/03/21 07:02:58;;;;;;;55.88;32.80;;;;;;;;;;5075727;28;20032;-63
2024/03/21 07:05:25;;;;;;;59.03;34.97;;;;;;;;;;5073999;28;20032;-63
2024/03/21 07:07:50;;;;;;;51.60;30.90;;;;;;;;;;5075399;28;20070;-63
2024/03/21 07:10:16;;;;;;;39.83;23.33;;;;;;;;;;5075362;28;20025;-63
2024/03/21 07:12:42;;;;;;;41.70;25.20;;;;;;;;;;5075033;28;20024;-63
2024/03/21 07:15:08;;;;;;;54.67;32.20;;;;;;;;;;5074983;28;20352;-63
2024/03/21 07:17:33;;;;;;;54.47;31.38;;;;;;;;;;5073686;28;20368;-63
2024/03/21 07:19:59;;;;;;;55.40;31.83;;;;;;;;;;5084879;22;20079;-59
2024/03/21 07:22:24;;;;;;;51.80;30.77;;;;;;;;;;5075008;28;20067;-59
2024/03/21 07:24:50;;;;;;;45.17;26.02;;;;;;;;;;5085903;22;20442;-63
2024/03/21 07:27:16;;;;;;;41.63;25.85;;;;;;;;;;5073494;28;20093;-63
2024/03/21 07:29:42;;;;;;;51.35;30.10;;;;;;;;;;5074022;28;20420;-63
2024/03/21 07:32:08;;;;;;;54.53;31.42;;;;;;;;;;5073761;28;20111;-63
2024/03/21 07:34:34;;;;;;;48.95;30.17;;;;;;;;;;5074611;28;20103;-63
2024/03/21 07:36:59;;;;;;;53.78;31.10;;;;;;;;;;5074566;28;20387;-63
2024/03/21 07:39:25;;;;;;;50.58;30.60;;;;;;;;;;5073195;28;20162;-63
2024/03/21 07:41:50;;;;;;;52.65;29.95;;;;;;;;;;5074744;28;20039;-63
2024/03/21 07:44:16;;;;;;;55.25;31.25;;;;;;;;;;5074917;28;20039;-63
2024/03/21 07:46:41;;;;;;;44.17;26.95;;;;;;;;;;5073165;28;20024;-63
2024/03/21 07:49:08;;;;;;;41.70;23.80;;;;;;;;;;5074334;28;20052;-63
2024/03/21 07:51:34;;;;;;;49.67;31.10;;;;;;;;;;5074872;28;20020;-63
2024/03/21 07:53:59;;;;;;;55.55;31.23;;;;;;;;;;5074236;28;20444;-63
2024/03/21 07:56:25;;;;;;;52.08;29.52;;;;;;;;;;5072939;28;20028;-63
2024/03/21 07:58:51;;;;;;;44.90;24.05;;;;;;;;;;5074159;28;20391;-63
2024/03/21 08:01:16;;;;;;;49.25;28.77;;;;;;;;;;5074169;28;20031;-63
2024/03/21 08:03:42;;;;;;;44.08;25.98;;;;;;;;;;5073990;28;20386;-63
2024/03/21 08:06:07;;;;;;;50.63;31.05;;;;;;;;;;5074067;28;20031;-63
2024/03/21 08:08:32;;;;;;;51.03;32.03;;;;;;;;;;5072712;28;20033;-63
2024/03/21 08:10:59;;;;;;;56.60;33.95;;;;;;;;;;5073952;28;20048;-63
2024/03/21 08:13:24;;;;;;;57.70;34.63;;;;;;;;;;5074207;28;20082;-63
2024/03/21 08:15:51;;;;;;;58.08;32.83;;;;;;;;;;5072651;28;20386;-63
2024/03/21 08:18:16;;;;;;;56.88;33.38;;;;;;;;;;5073866;28;20036;-63
2024/03/21 08:20:44;;;;;;;59.45;33.65;;;;;;;;;;5074411;28;20165;-64
2024/03/21 08:23:10;;;;;;;58.60;31.98;;;;;;;;;;5073774;28;20039;-63
2024/03/21 08:25:35;;;;;;;58.45;32.47;;;;;;;;;;5073838;28;20036;-63
2024/03/21 08:30:50;;;;;;;56.47;32.47;;;;;;;;;;5009954;22;20060;-58
2024/03/21 08:33:26;;;;;;;43.78;26.23;;;;;;;;;;5048967;22;20045;-59
2024/03/21 08:35:51;;;;;;;45.33;25.63;;;;;;;;;;5012120;28;20417;-63
2024/03/21 08:38:17;;;;;;;53.08;30.48;;;;;;;;;;4996439;28;20076;-63
2024/03/21 08:40:49;;;;;;;51.30;30.85;;;;;;;;;;5013599;28;20041;-63
2024/03/21 08:43:15;;;;;;;45.97;25.80;;;;;;;;;;5013877;28;20084;-63
2024/03/21 08:45:42;;;;;;;52.03;29.35;;;;;;;;;;5013837;28;20428;-63
2024/03/21 08:48:09;;;;;;;43.50;25.63;;;;;;;;;;5013812;28;20022;-63
2024/03/21 08:50:34;;;;;;;46.35;26.15;;;;;;;;;;5013777;28;20026;-63
2024/03/21 08:53:01;;;;;;;58.83;32.50;;;;;;;;;;5013890;28;20022;-63
2024/03/21 08:55:26;;;;;;;57.10;31.15;;;;;;;;;;5013822;28;20088;-63
2024/03/21 08:57:52;;;;;;;40.78;23.40;;;;;;;;;;5013678;28;20130;-63
2024/03/21 09:00:17;;;;;;;41.40;22.85;;;;;;;;;;5013726;28;20030;-63
2024/03/21 09:02:42;;;;;;;54.25;29.42;;;;;;;;;;5013751;28;20365;-63
2024/03/21 09:05:08;;;;;;;53.33;29.35;;;;;;;;;;4996149;28;20033;-63
2024/03/21 09:07:33;;;;;;;55.67;29.17;;;;;;;;;;5013608;28;20030;-63
2024/03/21 09:09:58;;;;;;;53.05;29.55;;;;;;;;;;5013612;28;20464;-63
2024/03/21 09:12:24;;;;;;;54.03;29.27;;;;;;;;;;4996049;28;20432;-63
2024/03/21 09:14:49;;;;;;;35.85;19.88;;;;;;;;;;5013646;28;20041;-63
2024/03/21 09:17:15;;;;;;;35.67;19.60;;;;;;;;;;5013652;28;20026;-63
2024/03/21 09:19:40;;;;;;;35.35;20.63;;;;;;;;;;4995995;28;20511;-63
2024/03/21 09:22:05;;;;;;;46.15;27.23;;;;;;;;;;4996010;28;20053;-63
2024/03/21 09:24:31;;;;;;;41.40;22.58;;;;;;;;;;5013622;28;20045;-63
2024/03/21 09:26:56;;;;;;;36.75;22.70;;;;;;;;;;4995879;28;20076;-63
2024/03/21 09:29:22;;;;;;;39.17;23.23;;;;;;;;;;5013574;28;20030;-63
2024/03/21 09:31:47;;;;;;;43.80;24.65;;;;;;;;;;5013528;28;20384;-63
2024/03/21 09:34:13;;;;;;;35.30;20.65;;;;;;;;;;5013238;28;20069;-63
2024/03/21 09:36:38;;;;;;;39.03;21.75;;;;;;;;;;4995968;28;20037;-63
2024/03/21 09:39:05;;;;;;;33.92;20.05;;;;;;;;;;5013343;28;20100;-63
2024/03/21 09:41:32;;;;;;;30.80;18.20;;;;;;;;;;5013352;28;20132;-63
2024/03/21 09:43:59;;;;;;;28.38;15.95;;;;;;;;;;5013269;28;20464;-63
2024/03/21 09:46:24;;;;;;;35.03;20.05;;;;;;;;;;5013275;28;20472;-63
2024/03/21 09:48:50;;;;;;;38.78;22.40;;;;;;;;;;4995811;28;20054;-63
2024/03/21 09:51:21;;;;;;;43.63;24.65;;;;;;;;;;4995839;28;20049;-63
2024/03/21 09:53:47;;;;;;;38.72;22.98;;;;;;;;;;4998931;28;20034;-63
2024/03/21 09:56:14;;;;;;;38.30;24.48;;;;;;;;;;5016800;28;20026;-63
2024/03/21 09:58:40;;;;;;;29.27;17.50;;;;;;;;;;5016737;28;20457;-63
2024/03/21 10:01:25;;;;;;;25.98;14.68;;;;;;;;;;5016485;28;20034;-63
2024/03/21 10:03:52;;;;;;;26.33;16.20;;;;;;;;;;5016228;28;20080;-63
2024/03/21 10:06:17;;;;;;;35.08;20.58;;;;;;;;;;5016641;28;20076;-63
2024/03/21 10:08:43;;;;;;;32.92;20.33;;;;;;;;;;5016594;28;20431;-63
2024/03/21 10:11:08;;;;;;;34.85;20.05;;;;;;;;;;5015269;28;20022;-63
2024/03/21 10:13:34;;;;;;;26.45;15.85;;;;;;;;;;5016503;28;20034;-63
2024/03/21 10:16:00;;;;;;;32.63;18.60;;;;;;;;;;5016420;28;20029;-63
2024/03/21 10:18:25;;;;;;;30.35;18.80;;;;;;;;;;5016335;28;20084;-63
2024/03/21 10:20:50;;;;;;;26.77;15.70;;;;;;;;;;4998890;28;20396;-63
2024/03/21 10:23:16;;;;;;;30.05;16.42;;;;;;;;;;5016307;28;20088;-63
2024/03/21 10:25:42;;;;;;;26.05;16.35;;;;;;;;;;5016211;28;20026;-63
2024/03/21 10:28:15;;;;;;;30.83;17.73;;;;;;;;;;5016170;28;20109;-63
2024/03/21 10:30:43;;;;;;;26.73;15.75;;;;;;;;;;5016255;28;20025;-63
2024/03/21 10:33:15;;;;;;;26.45;16.05;;;;;;;;;;5016069;28;20384;-63
2024/03/21 10:35:41;;;;;;;29.35;14.88;;;;;;;;;;5015959;28;20046;-63
2024/03/21 10:38:11;;;;;;;22.48;14.15;;;;;;;;;;5016003;28;20026;-63
2024/03/21 10:40:37;;;;;;;21.48;14.30;;;;;;;;;;5015956;28;20029;-63
2024/03/21 10:43:03;;;;;;;26.55;16.08;;;;;;;;;;5015807;28;20502;-63
2024/03/21 10:45:28;;;;;;;30.77;19.30;;;;;;;;;;5015887;28;20022;-63
2024/03/21 10:47:53;;;;;;;29.40;18.70;;;;;;;;;;5015799;28;20042;-63
2024/03/21 10:50:20;;;;;;;34.03;21.08;;;;;;;;;;5014510;28;20029;-63
2024/03/21 10:52:52;;;;;;;29.60;19.13;;;;;;;;;;5015758;28;20034;-63
2024/03/21 10:55:21;;;;;;;33.13;19.15;;;;;;;;;;5015676;28;20065;-63
2024/03/21 10:57:51;;;;;;;24.52;15.45;;;;;;;;;;5015654;28;20030;-63
2024/03/21 11:00:20;;;;;;;27.63;15.40;;;;;;;;;;5015619;28;20072;-63
2024/03/21 11:02:47;;;;;;;28.35;17.58;;;;;;;;;;5015202;28;20435;-63
2024/03/21 11:05:13;;;;;;;32.10;19.08;;;;;;;;;;5015462;28;20034;-63
2024/03/21 11:07:44;;;;;;;31.25;21.40;;;;;;;;;;5015478;28;20117;-63
2024/03/21 11:10:15;;;;;;;29.80;18.08;;;;;;;;;;5015431;28;20037;-63
2024/03/21 11:12:40;;;;;;;27.60;18.75;;;;;;;;;;5015370;28;20369;-63
2024/03/21 11:15:06;;;;;;;28.33;18.15;;;;;;;;;;5015299;28;20030;-63
2024/03/21 11:17:32;;;;;;;26.63;17.63;;;;;;;;;;5015399;28;20476;-63
2024/03/21 11:20:02;;;;;;;25.65;15.13;;;;;;;;;;5015298;28;20037;-63
2024/03/21 11:22:28;;;;;;;26.52;14.90;;;;;;;;;;5015196;28;20090;-63
2024/03/21 11:24:53;;;;;;;35.10;19.80;;;;;;;;;;5015192;28;20061;-63
2024/03/21 11:27:18;;;;;;;29.15;16.45;;;;;;;;;;5015065;28;20377;-63
2024/03/21 11:29:45;;;;;;;20.85;13.27;;;;;;;;;;5015015;28;20030;-63
2024/03/21 11:32:10;;;;;;;16.13;10.57;;;;;;;;;;5014955;28;20029;-63
2024/03/21 11:34:36;;;;;;;20.00;13.32;;;;;;;;;;5014807;28;20050;-63
2024/03/21 11:37:02;;;;;;;25.38;15.02;;;;;;;;;;5014886;28;20030;-63
2024/03/21 11:39:28;;;;;;;22.10;14.27;;;;;;;;;;4997469;28;20046;-63
2024/03/21 11:41:58;;;;;;;22.52;14.57;;;;;;;;;;5014815;28;20536;-63
2024/03/21 11:44:24;;;;;;;17.73;10.40;;;;;;;;;;4997251;28;20034;-63
2024/03/21 11:46:49;;;;;;;22.05;12.90;;;;;;;;;;5014729;28;20092;-63
2024/03/21 11:49:15;;;;;;;33.53;19.38;;;;;;;;;;5014680;28;20419;-63
2024/03/21 11:51:42;;;;;;;27.58;16.23;;;;;;;;;;5014719;28;20558;-63
2024/03/21 11:54:08;;;;;;;57.13;32.33;;;;;;;;;;4997079;28;20112;-63
2024/03/21 11:56:35;;;;;;;45.22;28.02;;;;;;;;;;5014650;28;20048;-63
2024/03/21 11:59:01;;;;;;;34.72;22.00;;;;;;;;;;5014631;28;20121;-63
2024/03/21 12:01:26;;;;;;;27.92;17.55;;;;;;;;;;5014600;28;20157;-63
2024/03/21 12:03:51;;;;;;;23.80;15.90;;;;;;;;;;5014512;28;20369;-63
2024/03/21 12:06:17;;;;;;;27.42;16.27;;;;;;;;;;4996819;28;20419;-63
2024/03/21 12:08:43;;;;;;;24.33;15.68;;;;;;;;;;5014609;28;20460;-63
2024/03/21 12:11:15;;;;;;;20.90;13.25;;;;;;;;;;5014347;28;20032;-59
2024/03/21 12:13:41;;;;;;;24.77;15.27;;;;;;;;;;4996947;28;20419;-59
2024/03/21 12:16:11;;;;;;;20.30;13.63;;;;;;;;;;5014018;28;20021;-63
2024/03/21 12:18:37;;;;;;;19.58;12.57;;;;;;;;;;5014260;28;20036;-63
2024/03/21 12:21:02;;;;;;;23.67;15.65;;;;;;;;;;5014183;28;20124;-63
2024/03/21 12:23:28;;;;;;;23.05;14.65;;;;;;;;;;5014080;28;20038;-63
2024/03/21 12:25:53;;;;;;;21.85;13.20;;;;;;;;;;5012855;28;20033;-63
2024/03/21 12:28:19;;;;;;;13.70;8.95;;;;;;;;;;4996650;28;20034;-63
2024/03/21 12:30:45;;;;;;;15.15;9.23;;;;;;;;;;5014108;28;20129;-63
2024/03/21 12:33:11;;;;;;;17.75;10.23;;;;;;;;;;5014066;28;20054;-63
2024/03/21 12:35:36;;;;;;;17.67;9.63;;;;;;;;;;5013620;28;20408;-63
2024/03/21 12:38:03;;;;;;;14.25;9.18;;;;;;;;;;5013938;28;20053;-63
2024/03/21 12:40:28;;;;;;;15.38;10.10;;;;;;;;;;5014007;28;20038;-63
2024/03/21 12:42:54;;;;;;;16.95;11.57;;;;;;;;;;5013824;28;20037;-63
2024/03/21 12:45:20;;;;;;;19.08;11.93;;;;;;;;;;5013987;28;20034;-63
2024/03/21 12:47:45;;;;;;;19.63;10.77;;;;;;;;;;5014014;28;20033;-63
2024/03/21 12:50:10;;;;;;;16.65;10.95;;;;;;;;;;5013654;28;20034;-63
2024/03/21 12:52:36;;;;;;;11.00;7.32;;;;;;;;;;5014033;28;20021;-63
2024/03/21 12:55:02;;;;;;;10.13;7.13;;;;;;;;;;5013771;28;20076;-63
2024/03/21 12:57:27;;;;;;;9.95;7.60;;;;;;;;;;5013788;28;20088;-63
2024/03/21 12:59:53;;;;;;;15.20;9.00;;;;;;;;;;5013982;28;20029;-64
2024/03/21 13:02:18;;;;;;;12.07;8.13;;;;;;;;;;5013649;28;20453;-63
2024/03/21 13:04:48;;;;;;;11.25;7.55;;;;;;;;;;5013639;28;20022;-63
2024/03/21 13:07:15;;;;;;;10.40;7.40;;;;;;;;;;5013683;28;20476;-63
2024/03/21 13:09:40;;;;;;;10.85;7.40;;;;;;;;;;5013714;28;20022;-63
2024/03/21 13:12:06;;;;;;;12.95;8.15;;;;;;;;;;5013638;28;20033;-63
2024/03/21 13:14:31;;;;;;;12.25;7.70;;;;;;;;;;4996052;28;20072;-63
2024/03/21 13:16:58;;;;;;;14.82;9.35;;;;;;;;;;5013583;28;20018;-63
2024/03/21 13:19:25;;;;;;;16.40;9.98;;;;;;;;;;5013760;28;20111;-63
2024/03/21 13:21:50;;;;;;;16.33;10.57;;;;;;;;;;5013523;28;20361;-63
2024/03/21 13:24:16;;;;;;;14.40;9.18;;;;;;;;;;5013420;28;20037;-63
2024/03/21 13:26:43;;;;;;;10.75;7.07;;;;;;;;;;5013687;28;20022;-63
2024/03/21 13:29:09;;;;;;;17.25;9.95;;;;;;;;;;5017353;28;20349;-63
2024/03/21 13:31:34;;;;;;;14.18;9.13;;;;;;;;;;5017228;28;20026;-63
2024/03/21 13:33:59;;;;;;;15.48;10.70;;;;;;;;;;5017270;28;20073;-63
2024/03/21 13:36:25;;;;;;;17.70;10.70;;;;;;;;;;5017128;28;20088;-63
2024/03/21 13:38:57;;;;;;;16.35;8.65;;;;;;;;;;5017257;28;20156;-63
2024/03/21 13:41:23;;;;;;;13.82;8.38;;;;;;;;;;5017099;28;20030;-63
2024/03/21 13:43:48;;;;;;;14.13;8.27;;;;;;;;;;5016867;28;20511;-63
2024/03/21 13:46:14;;;;;;;12.02;7.28;;;;;;;;;;4999281;28;20034;-59
2024/03/21 13:48:39;;;;;;;14.77;8.65;;;;;;;;;;5031712;22;20045;-59
2024/03/21 13:51:04;;;;;;;13.95;8.25;;;;;;;;;;5018148;28;20038;-63
2024/03/21 13:53:30;;;;;;;13.15;8.50;;;;;;;;;;5036627;28;20060;-63
2024/03/21 13:55:55;;;;;;;13.85;9.80;;;;;;;;;;5018888;28;20605;-59
2024/03/21 13:58:20;;;;;;;13.70;7.53;;;;;;;;;;5036576;28;20443;-59
2024/03/21 14:00:47;;;;;;;16.05;8.02;;;;;;;;;;5036553;28;20088;-59
2024/03/21 14:03:12;;;;;;;12.20;7.78;;;;;;;;;;5036441;28;20475;-58
2024/03/21 14:05:38;;;;;;;13.93;8.23;;;;;;;;;;5036394;28;20022;-59
2024/03/21 14:08:04;;;;;;;21.10;10.38;;;;;;;;;;5036405;28;20371;-58
2024/03/21 14:10:29;;;;;;;19.67;9.80;;;;;;;;;;5036398;28;20084;-59
2024/03/21 14:12:55;;;;;;;13.13;8.18;;;;;;;;;;5036500;28;20033;-59
2024/03/21 14:15:20;;;;;;;14.45;9.75;;;;;;;;;;5036476;28;20033;-59
2024/03/21 14:17:46;;;;;;;17.77;11.00;;;;;;;;;;5036114;28;20364;-59
2024/03/21 14:20:14;;;;;;;18.40;10.60;;;;;;;;;;5036309;28;20060;-59